createdAt,value
2023-01-20T00:02:14.161Z,97785.38
2023-01-20T00:04:40.787Z,97727.91
2023-01-20T00:07:07.285Z,97796.66
2023-01-20T00:09:34.167Z,97788.88
2023-01-20T00:12:00.677Z,97789.28
2023-01-20T00:14:27.770Z,97791.38
2023-01-20T00:16:58.331Z,97788.16
2023-01-20T00:19:24.894Z,97796.66
2023-01-20T00:21:51.399Z,97790.94
2023-01-20T00:24:18.049Z,97767.66
2023-01-20T00:26:44.680Z,97808.94
2023-01-20T00:29:11.565Z,97779.47
2023-01-20T00:31:38.580Z,97793.75
2023-01-20T00:34:05.403Z,97805.31
2023-01-20T00:36:33.105Z,97811.44
2023-01-20T00:39:01.716Z,97810.63
2023-01-20T00:41:28.293Z,97814.75
2023-01-20T00:43:55.142Z,97833.56
2023-01-20T00:46:23.184Z,97819.38
2023-01-20T00:48:49.979Z,97800.28
2023-01-20T00:51:16.559Z,97782.00
2023-01-20T00:53:43.277Z,97810.47
2023-01-20T00:56:09.873Z,97778.91
2023-01-20T00:58:36.485Z,97817.59
2023-01-20T01:01:03.219Z,97813.06
2023-01-20T01:03:33.601Z,97837.88
2023-01-20T01:06:26.301Z,97847.66
2023-01-20T01:08:53.097Z,97854.72
2023-01-20T01:11:19.640Z,97865.31
2023-01-20T01:13:46.241Z,97856.13
2023-01-20T01:16:15.241Z,97850.41
2023-01-20T01:18:42.748Z,97840.69
2023-01-20T01:21:11.555Z,97838.03
2023-01-20T01:23:38.197Z,97826.75
2023-01-20T01:26:04.943Z,97759.88
2023-01-20T01:28:31.780Z,97780.25
2023-01-20T01:31:03.187Z,97832.75
2023-01-20T01:33:33.185Z,97830.91
2023-01-20T01:36:01.657Z,97822.31
2023-01-20T01:38:28.473Z,97803.16
2023-01-20T01:40:56.044Z,97838.03
2023-01-20T01:45:56.728Z,97821.72
2023-01-20T01:48:31.525Z,97819.66
2023-01-20T01:51:27.110Z,97822.31
2023-01-20T01:53:57.719Z,97800.03
2023-01-20T01:56:26.890Z,97851.41
2023-01-20T01:58:58.427Z,97849.56
2023-01-20T02:01:26.387Z,97841.22
2023-01-20T02:04:14.317Z,97843.47
2023-01-20T02:06:45.118Z,97809.09
2023-01-20T02:09:12.363Z,97852.38
2023-01-20T02:11:45.364Z,97858.34
2023-01-20T02:14:12.151Z,97859.34
2023-01-20T02:16:53.570Z,97841.97
2023-01-20T02:19:57.892Z,97869.06
2023-01-20T02:22:42.869Z,97867.38
2023-01-20T02:25:37.015Z,97861.25
2023-01-20T02:28:48.507Z,97864.88
2023-01-20T02:31:27.091Z,97858.75
2023-01-20T02:34:01.038Z,97864.03
2023-01-20T02:36:34.044Z,97842.25
2023-01-20T02:39:13.535Z,97865.00
2023-01-20T02:42:06.399Z,97865.84
2023-01-20T02:44:44.866Z,97841.81
2023-01-20T02:47:23.618Z,97873.78
2023-01-20T02:50:04.274Z,97857.47
2023-01-20T02:52:41.206Z,97852.56
2023-01-20T02:55:17.921Z,97883.38
2023-01-20T02:57:50.469Z,97859.81
2023-01-20T03:00:35.895Z,97846.66
2023-01-20T03:03:07.530Z,97889.66
2023-01-20T03:05:39.944Z,97864.53
2023-01-20T03:08:10.568Z,97838.84
2023-01-20T03:10:39.192Z,97874.75
2023-01-20T03:13:22.266Z,97876.56
2023-01-20T03:16:22.280Z,97881.03
2023-01-20T03:18:50.659Z,97855.88
2023-01-20T03:21:17.375Z,97880.16
2023-01-20T03:23:50.577Z,97873.19
2023-01-20T03:26:19.746Z,97874.06
2023-01-20T03:28:48.499Z,97863.94
2023-01-20T03:31:26.881Z,97857.50
2023-01-20T03:33:57.741Z,97888.38
2023-01-20T03:36:28.188Z,97899.66
2023-01-20T03:38:56.785Z,97908.00
2023-01-20T03:41:40.245Z,97911.31
2023-01-20T03:44:12.616Z,97910.50
2023-01-20T03:46:42.941Z,97913.97
2023-01-20T03:49:39.265Z,97916.63
2023-01-20T03:52:47.440Z,97908.25
2023-01-20T03:55:23.094Z,97913.28
2023-01-20T03:58:04.653Z,97884.75
2023-01-20T04:00:38.103Z,97912.56
2023-01-20T04:03:15.230Z,97866.34
2023-01-20T04:05:44.466Z,97873.81
2023-01-20T04:08:13.610Z,97906.41
2023-01-20T04:10:43.228Z,97882.13
2023-01-20T04:13:09.924Z,97900.81
2023-01-20T04:15:39.978Z,97897.88
2023-01-20T04:18:33.757Z,97913.66
2023-01-20T04:21:02.394Z,97918.97
2023-01-20T04:23:45.159Z,97912.94
2023-01-20T04:26:11.736Z,97920.06
2023-01-20T04:28:38.327Z,97917.78
2023-01-20T04:31:05.273Z,97939.53
2023-01-20T04:33:31.930Z,97912.44
2023-01-20T04:35:58.520Z,97939.66
2023-01-20T04:38:25.060Z,97923.16
2023-01-20T04:40:51.795Z,97921.03
2023-01-20T04:43:18.509Z,97941.38
2023-01-20T04:45:45.202Z,97951.00
2023-01-20T04:48:12.152Z,97942.47
2023-01-20T04:50:40.826Z,97923.00
2023-01-20T04:53:11.477Z,97966.63
2023-01-20T04:55:38.193Z,97969.38
2023-01-20T04:58:04.781Z,97933.13
2023-01-20T05:00:31.405Z,97918.81
2023-01-20T05:02:59.013Z,97959.38
2023-01-20T05:05:25.815Z,97975.06
2023-01-20T05:07:53.422Z,97980.34
2023-01-20T05:10:20.377Z,97956.28
2023-01-20T05:12:47.263Z,97986.72
2023-01-20T05:15:14.179Z,97939.47
2023-01-20T05:17:41.114Z,97987.69
2023-01-20T05:20:08.885Z,97952.31
2023-01-20T05:22:35.513Z,97985.28
2023-01-20T05:25:02.142Z,97989.75
2023-01-20T05:27:28.821Z,97952.19
2023-01-20T05:29:55.532Z,97994.31
2023-01-20T05:32:22.098Z,97988.56
2023-01-20T05:34:48.857Z,97991.59
2023-01-20T05:37:17.955Z,97994.81
2023-01-20T05:39:44.563Z,97936.06
2023-01-20T05:42:11.112Z,97977.19
2023-01-20T05:44:37.767Z,98001.78
2023-01-20T05:47:04.608Z,98003.00
2023-01-20T05:49:31.311Z,98007.44
2023-01-20T05:51:57.930Z,97981.84
2023-01-20T05:54:26.090Z,97984.19
2023-01-20T05:56:52.810Z,97962.50
2023-01-20T05:59:19.468Z,98007.44
2023-01-20T06:01:46.005Z,97970.50
2023-01-20T06:04:12.630Z,98003.84
2023-01-20T06:06:39.384Z,98012.88
2023-01-20T06:09:06.664Z,97958.75
2023-01-20T06:11:33.364Z,97993.88
2023-01-20T06:13:59.999Z,98004.81
2023-01-20T06:16:26.567Z,97997.38
2023-01-20T06:18:53.292Z,97960.25
2023-01-20T06:21:19.841Z,98009.88
2023-01-20T06:23:46.580Z,98018.16
2023-01-20T06:26:14.393Z,98025.00
2023-01-20T06:28:41.222Z,98037.03
2023-01-20T06:31:30.748Z,98042.31
2023-01-20T06:33:57.516Z,98045.41
2023-01-20T06:36:24.274Z,98035.22
2023-01-20T06:38:51.071Z,98028.38
2023-01-20T06:41:19.544Z,98051.31
2023-01-20T06:43:46.552Z,98041.44
2023-01-20T06:46:15.247Z,98054.06
2023-01-20T06:48:42.993Z,98051.44
2023-01-20T06:51:17.830Z,98047.47
2023-01-20T06:53:44.583Z,98048.88
2023-01-20T06:56:13.040Z,98033.19
2023-01-20T06:58:40.326Z,98054.06
2023-01-20T07:01:13.270Z,98023.25
2023-01-20T07:03:43.497Z,98058.50
2023-01-20T07:06:30.410Z,98067.50
2023-01-20T07:08:58.977Z,98066.31
2023-01-20T07:11:26.357Z,98063.41
2023-01-20T07:13:53.387Z,98033.56
2023-01-20T07:16:19.987Z,98057.63
2023-01-20T07:18:51.263Z,98058.09
2023-01-20T07:21:18.544Z,98025.22
2023-01-20T07:23:45.632Z,98048.16
2023-01-20T07:26:15.505Z,98056.16
2023-01-20T07:28:42.431Z,98074.63
2023-01-20T07:31:20.405Z,98039.38
2023-01-20T07:33:47.753Z,98080.50
2023-01-20T07:36:15.422Z,98082.19
2023-01-20T07:38:42.705Z,98060.38
2023-01-20T07:41:16.580Z,98079.41
2023-01-20T07:46:27.389Z,98081.84
2023-01-20T07:48:55.540Z,98047.41
2023-01-20T07:51:22.185Z,98077.25
2023-01-20T07:53:51.643Z,98084.09
2023-01-20T07:56:27.593Z,98077.00
2023-01-20T07:58:55.186Z,98083.69
2023-01-20T08:01:26.001Z,98086.25
2023-01-20T08:03:53.098Z,98086.94
2023-01-20T08:06:22.258Z,98073.38
2023-01-20T08:08:49.384Z,98088.38
2023-01-20T08:11:18.157Z,98089.94
2023-01-20T08:13:45.500Z,98092.44
2023-01-20T08:16:14.967Z,98089.59
2023-01-20T08:18:42.337Z,98104.56
2023-01-20T08:21:18.226Z,98115.16
2023-01-20T08:23:44.830Z,98118.75
2023-01-20T08:26:11.348Z,98117.81
2023-01-20T08:28:38.091Z,98105.22
2023-01-20T08:31:16.121Z,98086.03
2023-01-20T08:33:43.980Z,98094.63
2023-01-20T08:36:14.149Z,98110.59
2023-01-20T08:38:41.252Z,98115.03
2023-01-20T08:41:09.586Z,98119.34
2023-01-20T08:43:36.614Z,98119.34
2023-01-20T08:46:07.351Z,98131.63
2023-01-20T08:48:35.245Z,98128.97
2023-01-20T08:51:09.810Z,98123.97
2023-01-20T08:53:36.705Z,98128.25
2023-01-20T08:56:04.131Z,98138.75
2023-01-20T08:58:30.930Z,98116.91
2023-01-20T09:00:58.411Z,98145.63
2023-01-20T09:03:25.489Z,98143.91
2023-01-20T09:05:52.648Z,98135.03
2023-01-20T09:08:20.376Z,98133.31
2023-01-20T09:10:46.985Z,98123.22
2023-01-20T09:13:13.584Z,98144.66
2023-01-20T09:15:40.253Z,98138.38
2023-01-20T09:18:06.944Z,98137.41
2023-01-20T09:20:33.493Z,98123.69
2023-01-20T09:23:03.201Z,98135.72
2023-01-20T09:25:30.075Z,98146.78
2023-01-20T09:28:00.428Z,98145.81
2023-01-20T09:30:27.488Z,98144.16
2023-01-20T09:32:56.296Z,98142.09
2023-01-20T09:35:24.042Z,98146.38
2023-01-20T09:38:09.226Z,98138.00
2023-01-20T09:41:02.634Z,98126.59
2023-01-20T09:43:57.797Z,98127.03
2023-01-20T09:46:29.180Z,98141.69
2023-01-20T09:49:32.898Z,98125.94
2023-01-20T09:52:21.350Z,98135.44
2023-01-20T09:54:54.653Z,98133.63
2023-01-20T09:57:24.956Z,98136.97
2023-01-20T10:00:07.644Z,98136.00
2023-01-20T10:02:36.396Z,98133.22
2023-01-20T10:05:13.438Z,98143.72
2023-01-20T10:07:48.217Z,98137.44
2023-01-20T10:10:50.766Z,98129.38
2023-01-20T10:13:31.488Z,98138.16
2023-01-20T10:16:04.842Z,98117.75
2023-01-20T10:18:47.652Z,98119.16
2023-01-20T10:21:29.533Z,98131.75
2023-01-20T10:24:00.289Z,98119.03
2023-01-20T10:26:42.375Z,98119.31
2023-01-20T10:29:32.341Z,98139.69
2023-01-20T10:32:01.367Z,98140.56
2023-01-20T10:34:37.220Z,98128.53
2023-01-20T10:37:09.932Z,98138.75
2023-01-20T10:39:58.394Z,98138.75
2023-01-20T10:42:28.350Z,98133.59
2023-01-20T10:44:55.390Z,98136.22
2023-01-20T10:47:35.458Z,98127.56
2023-01-20T10:50:17.227Z,98143.19
2023-01-20T10:53:00.403Z,98140.56
2023-01-20T10:55:57.904Z,98140.56
2023-01-20T10:58:30.081Z,98140.56
2023-01-20T11:00:59.918Z,98090.88
2023-01-20T11:03:35.631Z,98130.06
2023-01-20T11:06:03.205Z,98133.44
2023-01-20T11:08:30.392Z,98127.44
2023-01-20T11:11:00.762Z,98126.47
2023-01-20T11:13:27.430Z,98124.69
2023-01-20T11:15:59.551Z,98120.19
2023-01-20T11:18:32.076Z,98115.63
2023-01-20T11:21:04.958Z,98107.69
2023-01-20T11:23:39.943Z,98083.66
2023-01-20T11:26:11.970Z,98090.13
2023-01-20T11:28:44.570Z,98095.28
2023-01-20T11:31:11.551Z,98089.41
2023-01-20T11:33:38.164Z,98078.50
2023-01-20T11:36:18.837Z,98096.13
2023-01-20T11:38:48.149Z,98092.63
2023-01-20T11:41:19.435Z,98089.97
2023-01-20T11:43:46.113Z,98080.25
2023-01-20T11:46:16.321Z,98074.09
2023-01-20T11:48:43.017Z,98089.97
2023-01-20T11:51:21.188Z,98067.97
2023-01-20T11:53:48.360Z,98067.25
2023-01-20T11:56:22.284Z,98059.69
2023-01-20T11:58:54.554Z,98061.53
2023-01-20T12:01:26.036Z,98058.50
2023-01-20T12:04:14.730Z,98061.97
2023-01-20T12:06:55.833Z,98050.66
2023-01-20T12:09:28.761Z,98050.56
2023-01-20T12:12:37.545Z,98054.97
2023-01-20T12:15:16.821Z,98046.59
2023-01-20T12:17:46.311Z,98067.53
2023-01-20T12:20:24.759Z,98042.34
2023-01-20T12:23:13.161Z,98079.09
2023-01-20T12:25:56.849Z,98067.91
2023-01-20T12:28:28.287Z,98081.72
2023-01-20T12:31:00.521Z,98080.88
2023-01-20T12:33:35.282Z,98078.22
2023-01-20T12:36:26.772Z,98083.41
2023-01-20T12:39:17.934Z,98079.09
2023-01-20T12:41:47.404Z,98083.53
2023-01-20T12:44:13.834Z,98082.69
2023-01-20T12:46:50.675Z,98080.56
2023-01-20T12:49:36.541Z,98095.06
2023-01-20T12:52:39.119Z,98097.72
2023-01-20T12:55:37.332Z,98093.41
2023-01-20T12:58:17.742Z,98098.81
2023-01-20T13:01:11.187Z,98098.00
2023-01-20T13:03:56.254Z,98113.16
2023-01-20T13:06:53.772Z,98118.44
2023-01-20T13:09:45.150Z,98122.19
2023-01-20T13:12:11.639Z,98122.31
2023-01-20T13:15:01.979Z,98134.72
2023-01-20T13:17:43.794Z,98115.41
2023-01-20T13:20:25.114Z,98134.72
2023-01-20T13:22:53.474Z,98133.75
2023-01-20T13:25:21.670Z,98127.03
2023-01-20T13:27:51.175Z,98125.94
2023-01-20T13:30:51.568Z,98129.16
2023-01-20T13:33:38.292Z,98139.75
2023-01-20T13:36:22.825Z,98138.94
2023-01-20T13:39:10.416Z,98135.69
2023-01-20T13:41:51.965Z,98140.72
2023-01-20T13:44:37.774Z,98143.38
2023-01-20T13:47:08.596Z,98130.06
2023-01-20T13:49:43.901Z,98138.94
2023-01-20T13:52:11.892Z,98121.53
2023-01-20T13:54:43.111Z,98150.34
2023-01-20T13:57:27.868Z,98150.22
2023-01-20T13:59:55.904Z,98144.22
2023-01-20T14:02:28.804Z,98151.06
2023-01-20T14:04:56.264Z,98149.25
2023-01-20T14:07:25.602Z,98141.31
2023-01-20T14:09:54.074Z,98141.31
2023-01-20T14:12:20.920Z,98138.53
2023-01-20T14:14:49.370Z,98142.03
2023-01-20T14:17:22.064Z,98124.25
2023-01-20T14:19:50.805Z,98143.72
2023-01-20T14:22:24.916Z,98145.50
2023-01-20T14:24:53.734Z,98142.03
2023-01-20T14:27:32.003Z,98136.75
2023-01-20T14:30:15.917Z,98127.75
2023-01-20T14:32:42.767Z,98131.09
2023-01-20T14:35:18.554Z,98148.16
2023-01-20T14:37:50.308Z,98138.94
2023-01-20T14:40:23.391Z,98148.16
2023-01-20T14:43:02.422Z,98123.44
2023-01-20T14:45:32.292Z,98150.81
2023-01-20T14:48:01.293Z,98153.44
2023-01-20T14:50:28.808Z,98150.63
2023-01-20T14:52:56.163Z,98152.00
2023-01-20T14:55:34.131Z,98160.81
2023-01-20T14:58:07.075Z,98161.22
2023-01-20T15:00:34.638Z,98156.75
2023-01-20T15:03:10.999Z,98155.78
2023-01-20T15:05:41.803Z,98157.47
2023-01-20T15:08:11.412Z,98160.56
2023-01-20T15:10:38.946Z,98150.72
2023-01-20T15:13:21.871Z,98141.47
2023-01-20T15:15:48.547Z,98156.34
2023-01-20T15:18:17.406Z,98157.91
2023-01-20T15:20:48.931Z,98153.34
2023-01-20T15:23:27.503Z,98155.03
2023-01-20T15:25:56.469Z,98151.66
2023-01-20T15:28:27.441Z,98152.09
2023-01-20T15:33:25.744Z,98122.22
2023-01-20T15:36:13.678Z,98157.28
2023-01-20T15:38:40.330Z,98155.13
2023-01-20T15:41:06.841Z,98151.88
2023-01-20T15:43:33.380Z,98154.53
2023-01-20T15:45:59.983Z,98144.44
2023-01-20T15:48:26.662Z,98151.88
2023-01-20T15:50:53.196Z,98150.19
2023-01-20T15:53:19.841Z,98159.69
2023-01-20T15:55:50.903Z,98158.84
2023-01-20T15:58:22.486Z,98149.34
2023-01-20T16:00:49.364Z,98147.41
2023-01-20T16:03:19.165Z,98155.34
2023-01-20T16:05:48.263Z,98156.22
2023-01-20T16:08:20.523Z,98139.16
2023-01-20T16:10:47.595Z,98144.03
2023-01-20T16:13:15.098Z,98140.94
2023-01-20T16:15:42.961Z,98144.91
2023-01-20T16:18:14.867Z,98151.97
2023-01-20T16:20:42.740Z,98142.38
2023-01-20T16:23:10.015Z,98148.19
2023-01-20T16:25:38.471Z,98150.69
2023-01-20T16:28:14.555Z,98154.75
2023-01-20T16:30:41.704Z,98149.84
2023-01-20T16:33:20.400Z,98160.19
2023-01-20T16:38:17.898Z,98164.75
2023-01-20T16:40:51.371Z,98172.81
2023-01-20T16:43:21.819Z,98170.31
2023-01-20T16:45:55.232Z,98171.00
2023-01-20T16:48:23.479Z,98171.00
2023-01-20T16:50:51.421Z,98166.69
2023-01-20T16:53:19.887Z,98167.53
2023-01-20T16:55:49.034Z,98160.09
2023-01-20T16:58:16.942Z,98175.47
2023-01-20T17:00:43.554Z,98168.75
2023-01-20T17:03:10.290Z,98169.72
2023-01-20T17:05:36.938Z,98178.94
2023-01-20T17:08:04.189Z,98167.88
2023-01-20T17:10:33.853Z,98109.81
2023-01-20T17:13:00.822Z,98130.19
2023-01-20T17:15:28.029Z,98122.53
2023-01-20T17:17:58.612Z,98180.03
2023-01-20T17:20:26.865Z,98171.97
2023-01-20T17:22:59.496Z,98152.16
2023-01-20T17:25:26.357Z,98167.88
2023-01-20T17:27:53.124Z,98160.09
2023-01-20T17:30:20.413Z,98171.97
2023-01-20T17:32:48.258Z,98162.59
2023-01-20T17:35:16.026Z,98165.84
2023-01-20T17:37:43.307Z,98166.69
2023-01-20T17:40:11.708Z,98170.41
2023-01-20T17:42:39.258Z,98161.78
2023-01-20T17:45:06.523Z,98155.88
2023-01-20T17:47:33.165Z,98155.63
2023-01-20T17:49:59.819Z,98162.72
2023-01-20T17:52:28.001Z,98139.06
2023-01-20T17:54:55.687Z,98163.69
2023-01-20T17:57:22.193Z,98165.50
2023-01-20T17:59:49.000Z,98157.94
2023-01-20T18:02:18.443Z,98157.94
2023-01-20T18:04:45.141Z,98160.44
2023-01-20T18:07:11.738Z,98147.59
2023-01-20T18:09:38.327Z,98139.47
2023-01-20T18:12:05.220Z,98153.59
2023-01-20T18:14:31.904Z,98153.88
2023-01-20T18:16:58.450Z,98161.66
2023-01-20T18:19:25.225Z,98159.38
2023-01-20T18:21:51.906Z,98149.91
2023-01-20T18:24:18.679Z,98116.41
2023-01-20T18:26:45.269Z,98110.31
2023-01-20T18:29:16.793Z,98138.13
2023-01-20T18:31:46.307Z,98152.41
2023-01-20T18:34:15.678Z,98155.91
2023-01-20T18:36:49.223Z,98153.28
2023-01-20T18:39:19.799Z,98148.94
2023-01-20T18:41:47.616Z,98144.28
2023-01-20T18:44:14.282Z,98154.38
2023-01-20T18:46:41.103Z,98151.72
2023-01-20T18:49:09.694Z,98145.69
2023-01-20T18:51:36.995Z,98151.81
2023-01-20T18:54:07.408Z,98149.31
2023-01-20T18:56:34.535Z,98137.19
2023-01-20T18:59:02.393Z,98148.47
2023-01-20T19:01:33.621Z,98143.78
2023-01-20T19:04:02.192Z,98149.31
2023-01-20T19:06:34.385Z,98138.72
2023-01-20T19:09:01.360Z,98150.03
2023-01-20T19:11:31.816Z,98130.69
2023-01-20T19:13:59.307Z,98105.00
2023-01-20T19:16:34.273Z,98143.78
2023-01-20T19:19:03.008Z,98148.94
2023-01-20T19:21:36.577Z,98156.88
2023-01-20T19:24:08.278Z,98145.34
2023-01-20T19:26:37.429Z,98118.56
2023-01-20T19:29:15.555Z,98149.53
2023-01-20T19:31:42.653Z,98139.56
2023-01-20T19:34:18.452Z,98151.47
2023-01-20T19:36:54.911Z,98155.06
2023-01-20T19:39:41.961Z,98136.22
2023-01-20T19:42:13.651Z,98156.63
2023-01-20T19:44:45.938Z,98142.34
2023-01-20T19:47:19.860Z,98137.91
2023-01-20T19:49:47.090Z,98111.97
2023-01-20T19:52:13.872Z,98150.63
2023-01-20T19:54:40.720Z,98141.69
2023-01-20T19:57:15.538Z,98133.91
2023-01-20T19:59:42.445Z,98095.88
2023-01-20T20:02:12.195Z,98069.06
2023-01-20T20:04:40.252Z,98109.41
2023-01-20T20:07:11.563Z,98097.44
2023-01-20T20:09:42.648Z,98145.44
2023-01-20T20:12:12.644Z,98141.97
2023-01-20T20:14:45.436Z,98098.63
2023-01-20T20:17:18.016Z,98117.00
2023-01-20T20:19:49.403Z,98134.16
2023-01-20T20:22:16.008Z,98117.25
2023-01-20T20:24:42.676Z,98125.50
2023-01-20T20:27:09.634Z,98116.84
2023-01-20T20:29:38.501Z,98117.56
2023-01-20T20:32:05.479Z,98127.19
2023-01-20T20:34:33.471Z,98095.81
2023-01-20T20:37:00.355Z,98107.00
2023-01-20T20:39:27.490Z,98102.53
2023-01-20T20:41:55.625Z,98096.69
2023-01-20T20:44:22.486Z,98077.34
2023-01-20T20:46:52.168Z,98108.09
2023-01-20T20:49:20.467Z,98102.94
2023-01-20T20:51:52.305Z,98068.59
2023-01-20T20:54:19.534Z,98094.78
2023-01-20T20:56:46.473Z,98086.56
2023-01-20T20:59:13.657Z,98101.72
2023-01-20T21:01:43.462Z,98094.75
2023-01-20T21:04:11.537Z,98085.13
2023-01-20T21:06:38.236Z,98065.56
2023-01-20T21:09:04.901Z,98054.53
2023-01-20T21:11:38.387Z,98034.72
2023-01-20T21:14:07.311Z,98069.88
2023-01-20T21:16:34.654Z,98041.94
2023-01-20T21:19:05.118Z,98026.69
2023-01-20T21:21:32.007Z,98063.50
2023-01-20T21:23:59.465Z,98057.41
2023-01-20T21:26:30.020Z,98066.16
2023-01-20T21:29:00.259Z,98063.63
2023-01-20T21:31:27.059Z,98010.97
2023-01-20T21:33:56.410Z,98068.22
2023-01-20T21:36:23.348Z,98068.22
2023-01-20T21:38:53.385Z,98048.31
2023-01-20T21:41:20.741Z,98073.63
2023-01-20T21:44:06.945Z,98047.59
2023-01-20T21:46:39.917Z,98063.19
2023-01-20T21:49:26.787Z,98068.56
2023-01-20T21:52:13.551Z,98063.41
2023-01-20T21:54:41.337Z,98055.47
2023-01-20T21:57:08.222Z,98057.66
2023-01-20T21:59:35.071Z,98041.94
2023-01-20T22:02:02.034Z,98047.09
2023-01-20T22:04:28.848Z,98042.03
2023-01-20T22:06:55.416Z,98031.88
2023-01-20T22:09:22.243Z,98009.03
2023-01-20T22:11:50.032Z,98002.94
2023-01-20T22:14:16.625Z,98022.75
2023-01-20T22:16:43.285Z,98057.44
2023-01-20T22:19:13.477Z,98060.06
2023-01-20T22:21:40.409Z,98057.44
2023-01-20T22:24:07.602Z,98050.34
2023-01-20T22:26:34.299Z,98051.16
2023-01-20T22:29:00.919Z,98005.91
2023-01-20T22:31:28.669Z,98040.50
2023-01-20T22:33:57.320Z,98008.09
2023-01-20T22:36:24.704Z,98057.16
2023-01-20T22:38:52.916Z,98040.13
2023-01-20T22:41:20.504Z,98056.34
2023-01-20T22:43:48.127Z,98025.09
2023-01-20T22:46:17.352Z,98055.47
2023-01-20T22:48:44.556Z,98039.91
2023-01-20T22:51:13.946Z,98011.69
2023-01-20T22:53:41.155Z,98017.44
2023-01-20T22:56:12.564Z,98053.69
2023-01-20T22:58:39.685Z,97968.16
2023-01-20T23:01:13.573Z,98028.50
2023-01-20T23:03:40.828Z,98000.63
2023-01-20T23:06:07.723Z,98057.16
2023-01-20T23:08:34.508Z,98035.19
2023-01-20T23:11:05.111Z,98036.06
2023-01-20T23:13:33.220Z,98021.88
2023-01-20T23:15:59.779Z,98062.47
2023-01-20T23:18:26.568Z,98031.97
2023-01-20T23:20:54.215Z,98042.75
2023-01-20T23:23:21.537Z,98050.34
2023-01-20T23:25:48.376Z,98028.25
2023-01-20T23:28:15.642Z,98039.41
2023-01-20T23:30:43.050Z,98076.50
2023-01-20T23:33:12.451Z,98053.59
2023-01-20T23:35:39.140Z,98036.88
2023-01-20T23:38:07.654Z,98073.84
2023-01-20T23:40:35.218Z,98080.13
2023-01-20T23:43:02.039Z,98054.31
2023-01-20T23:45:28.788Z,98055.75
2023-01-20T23:47:55.884Z,97999.69
2023-01-20T23:50:22.600Z,98031.88
2023-01-20T23:52:49.281Z,98051.06
2023-01-20T23:55:15.965Z,98063.78
2023-01-20T23:57:42.666Z,98063.31
